createdAt,value
2022-12-08T00:01:12.522Z,97854.91
2022-12-08T00:03:40.280Z,97857.09
2022-12-08T00:06:32.162Z,97851.00
2022-12-08T00:09:19.454Z,97833.50
2022-12-08T00:11:46.524Z,97831.09
2022-12-08T00:14:13.544Z,97826.41
2022-12-08T00:16:40.711Z,97822.53
2022-12-08T00:19:07.778Z,97828.09
2022-12-08T00:21:34.824Z,97828.59
2022-12-08T00:24:02.048Z,97826.94
2022-12-08T00:26:29.150Z,97826.50
2022-12-08T00:28:56.172Z,97818.47
2022-12-08T00:31:23.729Z,97820.72
2022-12-08T00:33:50.857Z,97804.97
2022-12-08T00:36:17.977Z,97796.50
2022-12-08T00:38:45.511Z,97793.09
2022-12-08T00:41:18.227Z,97796.97
2022-12-08T00:43:45.468Z,97791.41
2022-12-08T00:46:12.691Z,97784.91
2022-12-08T00:48:39.780Z,97795.91
2022-12-08T00:51:06.931Z,97790.56
2022-12-08T00:53:33.971Z,97787.38
2022-12-08T00:56:01.105Z,97782.97
2022-12-08T00:58:28.230Z,97783.91
2022-12-08T01:00:55.335Z,97768.59
2022-12-08T01:03:22.455Z,97774.72
2022-12-08T01:05:49.619Z,97773.06
2022-12-08T01:08:16.747Z,97763.81
2022-12-08T01:10:43.831Z,97760.22
2022-12-08T01:13:11.685Z,97747.34
2022-12-08T01:15:38.734Z,97747.63
2022-12-08T01:18:05.864Z,97742.56
2022-12-08T01:20:32.953Z,97737.22
2022-12-08T01:22:59.983Z,97731.88
2022-12-08T01:25:27.035Z,97728.97
2022-12-08T01:27:54.245Z,97715.16
2022-12-08T01:30:22.216Z,97727.13
2022-12-08T01:32:49.285Z,97719.81
2022-12-08T01:35:16.526Z,97731.00
2022-12-08T01:37:43.637Z,97733.44
2022-12-08T01:40:10.990Z,97728.09
2022-12-08T01:42:38.751Z,97730.72
2022-12-08T01:45:13.841Z,97744.56
2022-12-08T01:47:48.615Z,97734.91
2022-12-08T01:50:18.884Z,97737.34
2022-12-08T01:52:58.049Z,97741.25
2022-12-08T01:55:38.690Z,97735.91
2022-12-08T01:58:17.283Z,97729.09
2022-12-08T02:00:44.847Z,97734.16
2022-12-08T02:03:18.880Z,97739.00
2022-12-08T02:05:47.378Z,97745.53
2022-12-08T02:08:15.020Z,97737.22
2022-12-08T02:10:43.516Z,97730.38
2022-12-08T02:13:15.179Z,97733.25
2022-12-08T02:15:49.488Z,97730.84
2022-12-08T02:18:24.849Z,97737.22
2022-12-08T02:21:01.869Z,97731.88
2022-12-08T02:23:35.189Z,97718.28
2022-12-08T02:26:35.989Z,97722.19
2022-12-08T02:29:26.301Z,97719.31
2022-12-08T02:32:08.076Z,97718.28
2022-12-08T02:34:48.921Z,97712.94
2022-12-08T02:37:50.582Z,97709.34
2022-12-08T02:40:35.149Z,97713.53
2022-12-08T02:43:25.382Z,97707.72
2022-12-08T02:45:57.376Z,97703.59
2022-12-08T02:48:28.157Z,97700.50
2022-12-08T02:50:55.249Z,97698.84
2022-12-08T02:53:22.452Z,97702.50
2022-12-08T02:56:12.835Z,97711.03
2022-12-08T02:59:01.595Z,97704.94
2022-12-08T03:01:57.826Z,97703.75
2022-12-08T03:04:46.743Z,97693.31
2022-12-08T03:07:30.999Z,97691.16
2022-12-08T03:10:10.122Z,97685.59
2022-12-08T03:12:50.841Z,97684.88
2022-12-08T03:15:20.785Z,97682.00
2022-12-08T03:17:53.822Z,97682.00
2022-12-08T03:20:24.660Z,97693.41
2022-12-08T03:22:55.311Z,97686.81
2022-12-08T03:25:24.690Z,97686.63
2022-12-08T03:27:52.509Z,97683.72
2022-12-08T03:30:20.014Z,97681.31
2022-12-08T03:33:05.286Z,97666.78
2022-12-08T03:35:36.073Z,97671.94
2022-12-08T03:38:12.121Z,97677.03
2022-12-08T03:40:40.221Z,97674.16
2022-12-08T03:43:07.805Z,97686.53
2022-12-08T03:45:35.384Z,97673.25
2022-12-08T03:48:02.821Z,97673.75
2022-12-08T03:50:29.902Z,97674.50
2022-12-08T03:52:57.019Z,97671.81
2022-12-08T03:55:24.130Z,97657.72
2022-12-08T03:57:51.200Z,97652.41
2022-12-08T04:00:18.450Z,97645.84
2022-12-08T04:02:45.775Z,97646.56
2022-12-08T04:05:12.845Z,97641.94
2022-12-08T04:07:40.019Z,97643.88
2022-12-08T04:10:07.875Z,97642.44
2022-12-08T04:12:35.039Z,97644.38
2022-12-08T04:15:02.353Z,97646.56
2022-12-08T04:17:29.428Z,97636.09
2022-12-08T04:19:56.539Z,97639.22
2022-12-08T04:22:23.734Z,97632.91
2022-12-08T04:24:50.989Z,97643.97
2022-12-08T04:27:18.056Z,97660.47
2022-12-08T04:29:45.221Z,97659.91
2022-12-08T04:32:12.334Z,97666.72
2022-12-08T04:34:39.392Z,97672.06
2022-12-08T04:37:06.465Z,97681.72
2022-12-08T04:39:33.645Z,97676.78
2022-12-08T04:42:00.688Z,97682.59
2022-12-08T04:44:27.683Z,97690.81
2022-12-08T04:46:55.266Z,97699.09
2022-12-08T04:49:22.378Z,97693.41
2022-12-08T04:51:49.613Z,97678.44
2022-12-08T04:54:16.753Z,97682.09
2022-12-08T04:56:43.831Z,97682.59
2022-12-08T04:59:10.859Z,97683.34
2022-12-08T05:01:38.098Z,97684.03
2022-12-08T05:04:05.263Z,97685.28
2022-12-08T05:06:32.321Z,97682.81
2022-12-08T05:08:59.433Z,97687.19
2022-12-08T05:11:26.543Z,97682.25
2022-12-08T05:13:53.566Z,97661.38
2022-12-08T05:16:20.808Z,97655.28
2022-12-08T05:18:47.921Z,97654.56
2022-12-08T05:21:15.057Z,97656.22
2022-12-08T05:23:42.131Z,97659.09
2022-12-08T05:26:09.283Z,97657.88
2022-12-08T05:28:44.088Z,97648.91
2022-12-08T05:31:13.436Z,97660.34
2022-12-08T05:33:40.959Z,97667.84
2022-12-08T05:36:09.095Z,97686.03
2022-12-08T05:38:36.729Z,97682.13
2022-12-08T05:41:04.214Z,97686.78
2022-12-08T05:43:31.248Z,97682.13
2022-12-08T05:45:58.822Z,97684.31
2022-12-08T05:48:26.214Z,97675.34
2022-12-08T05:50:53.628Z,97665.88
2022-12-08T05:53:21.463Z,97667.13
2022-12-08T05:55:48.761Z,97665.16
2022-12-08T05:58:20.456Z,97663.94
2022-12-08T06:00:48.265Z,97668.53
2022-12-08T06:03:17.343Z,97682.63
2022-12-08T06:05:45.926Z,97684.59
2022-12-08T06:08:13.798Z,97685.59
2022-12-08T06:10:43.141Z,97678.81
2022-12-08T06:13:10.803Z,97679.81
2022-12-08T06:15:39.098Z,97679.09
2022-12-08T06:18:07.299Z,97679.56
2022-12-08T06:20:34.626Z,97688.84
2022-12-08T06:23:02.247Z,97699.31
2022-12-08T06:25:29.525Z,97694.97
2022-12-08T06:27:56.506Z,97697.19
2022-12-08T06:30:23.734Z,97684.84
2022-12-08T06:32:50.897Z,97684.09
2022-12-08T06:35:18.111Z,97686.53
2022-12-08T06:37:45.155Z,97691.13
2022-12-08T06:40:12.715Z,97697.88
2022-12-08T06:42:46.892Z,97688.56
2022-12-08T06:45:16.412Z,97698.97
2022-12-08T06:47:44.678Z,97709.66
2022-12-08T06:50:13.026Z,97719.84
2022-12-08T06:52:53.008Z,97722.22
2022-12-08T06:55:57.300Z,97731.66
2022-12-08T06:58:14.319Z,97731.47
2022-12-08T07:00:43.007Z,97735.34
2022-12-08T07:03:12.121Z,97746.25
2022-12-08T07:05:39.820Z,97747.00
2022-12-08T07:08:08.909Z,97737.00
2022-12-08T07:10:36.334Z,97749.16
2022-12-08T07:13:04.067Z,97756.16
2022-12-08T07:15:31.273Z,97745.25
2022-12-08T07:18:00.316Z,97750.16
2022-12-08T07:20:27.981Z,97757.94
2022-12-08T07:22:55.237Z,97760.41
2022-12-08T07:25:22.403Z,97760.69
2022-12-08T07:27:51.786Z,97762.63
2022-12-08T07:30:19.064Z,97760.22
2022-12-08T07:32:46.305Z,97748.06
2022-12-08T07:35:13.467Z,97744.66
2022-12-08T07:37:40.821Z,97748.78
2022-12-08T07:40:09.297Z,97753.91
2022-12-08T07:42:36.467Z,97738.13
2022-12-08T07:45:03.815Z,97739.13
2022-12-08T07:47:31.132Z,97732.34
2022-12-08T07:49:58.234Z,97733.56
2022-12-08T07:52:25.371Z,97731.91
2022-12-08T07:54:52.456Z,97729.25
2022-12-08T07:57:19.581Z,97725.09
2022-12-08T07:59:46.595Z,97729.72
2022-12-08T08:02:24.810Z,97729.25
2022-12-08T08:04:53.591Z,97739.94
2022-12-08T08:07:20.826Z,97753.00
2022-12-08T08:09:47.894Z,97771.66
2022-12-08T08:12:30.658Z,97768.91
2022-12-08T08:14:59.489Z,97775.41
2022-12-08T08:17:26.953Z,97773.91
2022-12-08T08:19:54.106Z,97772.47
2022-12-08T08:22:21.216Z,97766.41
2022-12-08T08:24:48.587Z,97786.56
2022-12-08T08:27:15.868Z,97790.22
2022-12-08T08:29:42.952Z,97789.47
2022-12-08T08:32:10.265Z,97790.22
2022-12-08T08:34:37.385Z,97800.81
2022-12-08T08:37:04.604Z,97805.66
2022-12-08T08:39:32.270Z,97805.41
2022-12-08T08:41:59.362Z,97803.22
2022-12-08T08:44:26.464Z,97805.09
2022-12-08T08:46:53.861Z,97790.00
2022-12-08T08:49:21.581Z,97781.00
2022-12-08T08:51:48.758Z,97793.56
2022-12-08T08:54:16.210Z,97786.78
2022-12-08T08:56:43.230Z,97790.69
2022-12-08T08:59:11.065Z,97791.91
2022-12-08T09:01:38.173Z,97793.34
2022-12-08T09:04:05.303Z,97801.38
2022-12-08T09:06:32.813Z,97806.72
2022-12-08T09:09:00.203Z,97806.16
2022-12-08T09:11:27.212Z,97823.06
2022-12-08T09:13:54.870Z,97825.19
2022-12-08T09:16:23.047Z,97826.34
2022-12-08T09:18:50.818Z,97848.09
2022-12-08T09:21:23.221Z,97850.25
2022-12-08T09:23:51.692Z,97857.00
2022-12-08T09:26:22.683Z,97848.53
2022-12-08T09:28:51.328Z,97850.28
2022-12-08T09:31:20.387Z,97860.72
2022-12-08T09:33:48.431Z,97875.69
2022-12-08T09:36:15.436Z,97882.41
2022-12-08T09:38:42.534Z,97903.47
2022-12-08T09:41:43.300Z,97900.72
2022-12-08T09:44:31.883Z,97897.97
2022-12-08T09:47:00.895Z,97895.22
2022-12-08T09:49:47.365Z,97913.06
2022-12-08T09:52:41.136Z,97911.09
2022-12-08T09:55:25.568Z,97919.75
2022-12-08T09:58:01.641Z,97924.31
2022-12-08T10:00:28.832Z,97929.88
2022-12-08T10:02:57.301Z,97940.31
2022-12-08T10:05:26.261Z,97937.84
2022-12-08T10:08:20.463Z,97951.59
2022-12-08T10:11:00.309Z,97947.81
2022-12-08T10:13:35.100Z,97946.81
2022-12-08T10:16:30.181Z,97947.81
2022-12-08T10:19:11.764Z,97946.66
2022-12-08T10:21:40.835Z,97954.50
2022-12-08T10:24:23.003Z,97951.28
2022-12-08T10:26:50.402Z,97942.75
2022-12-08T10:29:17.672Z,97939.56
2022-12-08T10:31:45.145Z,97934.91
2022-12-08T10:34:24.479Z,97927.72
2022-12-08T10:36:54.667Z,97937.38
2022-12-08T10:39:36.439Z,97936.78
2022-12-08T10:42:15.836Z,97935.19
2022-12-08T10:44:55.727Z,97941.38
2022-12-08T10:47:25.103Z,97946.75
2022-12-08T10:50:09.804Z,97947.66
2022-12-08T10:52:41.247Z,97952.69
2022-12-08T10:55:20.772Z,97940.38
2022-12-08T10:57:50.975Z,97940.19
2022-12-08T11:00:21.539Z,97933.22
2022-12-08T11:02:57.898Z,97932.09
2022-12-08T11:05:36.894Z,97929.81
2022-12-08T11:08:05.588Z,97922.94
2022-12-08T11:10:44.670Z,97922.41
2022-12-08T11:13:27.039Z,97926.25
2022-12-08T11:15:55.588Z,97924.06
2022-12-08T11:18:30.210Z,97921.97
2022-12-08T11:21:07.548Z,97929.53
2022-12-08T11:23:37.294Z,97912.19
2022-12-08T11:26:20.932Z,97911.03
2022-12-08T11:28:48.151Z,97910.22
2022-12-08T11:31:23.318Z,97909.13
2022-12-08T11:33:53.226Z,97900.84
2022-12-08T11:36:23.057Z,97913.44
2022-12-08T11:38:55.678Z,97904.56
2022-12-08T11:41:27.600Z,97904.13
2022-12-08T11:44:22.661Z,97912.56
2022-12-08T11:46:57.183Z,97918.09
2022-12-08T11:49:32.047Z,97915.19
2022-12-08T11:52:26.683Z,97915.63
2022-12-08T11:55:05.850Z,97921.84
2022-12-08T11:57:33.122Z,97909.88
2022-12-08T12:00:04.426Z,97912.25
2022-12-08T12:02:35.461Z,97916.91
2022-12-08T12:05:11.770Z,97901.34
2022-12-08T12:07:52.055Z,97900.06
2022-12-08T12:10:55.835Z,97894.88
2022-12-08T12:13:41.466Z,97893.75
2022-12-08T12:16:30.392Z,97887.84
2022-12-08T12:19:03.995Z,97884.69
2022-12-08T12:21:43.300Z,97885.41
2022-12-08T12:24:22.330Z,97880.25
2022-12-08T12:26:55.825Z,97872.91
2022-12-08T12:29:25.969Z,97863.31
2022-12-08T12:31:58.670Z,97862.28
2022-12-08T12:34:46.974Z,97865.81
2022-12-08T12:37:36.024Z,97871.22
2022-12-08T12:40:07.892Z,97884.13
2022-12-08T12:42:40.659Z,97859.47
2022-12-08T12:45:16.578Z,97869.25
2022-12-08T12:47:56.957Z,97876.28
2022-12-08T12:50:39.119Z,97876.69
2022-12-08T12:53:20.957Z,97862.28
2022-12-08T12:55:57.293Z,97857.31
2022-12-08T12:58:30.289Z,97848.78
2022-12-08T13:01:12.958Z,97846.63
2022-12-08T13:03:50.423Z,97853.84
2022-12-08T13:06:32.618Z,97838.13
2022-12-08T13:09:00.609Z,97834.34
2022-12-08T13:11:27.811Z,97831.84
2022-12-08T13:14:05.814Z,97829.69
2022-12-08T13:16:35.407Z,97814.63
2022-12-08T13:19:08.418Z,97808.22
2022-12-08T13:21:38.391Z,97800.59
2022-12-08T13:24:14.221Z,97800.38
2022-12-08T13:26:49.864Z,97798.22
2022-12-08T13:29:25.837Z,97799.03
2022-12-08T13:31:54.561Z,97793.75
2022-12-08T13:34:48.837Z,97800.78
2022-12-08T13:37:50.707Z,97799.13
2022-12-08T13:40:30.565Z,97788.19
2022-12-08T13:43:12.324Z,97790.56
2022-12-08T13:46:31.963Z,97774.13
2022-12-08T13:55:26.823Z,97751.94
2022-12-08T13:57:36.155Z,97746.56
2022-12-08T14:00:05.988Z,97740.03
2022-12-08T14:02:43.757Z,97739.19
2022-12-08T14:05:34.894Z,97752.66
2022-12-08T14:08:01.871Z,97742.56
2022-12-08T14:10:32.340Z,97732.41
2022-12-08T14:13:06.451Z,97732.78
2022-12-08T14:15:37.596Z,97740.84
2022-12-08T14:18:07.103Z,97737.13
2022-12-08T14:20:57.983Z,97743.72
2022-12-08T14:23:22.629Z,97750.00
2022-12-08T14:25:49.869Z,97751.94
2022-12-08T14:28:17.420Z,97754.06
2022-12-08T14:30:44.817Z,97750.56
2022-12-08T14:33:15.366Z,97741.09
2022-12-08T14:35:42.505Z,97745.88
2022-12-08T14:38:16.500Z,97739.47
2022-12-08T14:40:45.962Z,97744.47
2022-12-08T14:43:19.446Z,97751.91
2022-12-08T14:45:47.183Z,97756.19
2022-12-08T14:48:33.803Z,97755.56
2022-12-08T14:51:06.702Z,97762.59
2022-12-08T14:53:47.830Z,97765.41
2022-12-08T14:56:23.159Z,97764.47
2022-12-08T14:59:03.259Z,97766.97
2022-12-08T15:01:30.971Z,97751.94
2022-12-08T15:04:18.204Z,97745.13
2022-12-08T15:06:56.793Z,97742.91
2022-12-08T15:09:41.573Z,97746.81
2022-12-08T15:12:14.409Z,97750.56
2022-12-08T15:15:23.858Z,97749.25
2022-12-08T15:18:02.728Z,97745.59
2022-12-08T15:20:47.173Z,97742.91
2022-12-08T15:23:26.268Z,97737.19
2022-12-08T15:25:55.254Z,97742.50
2022-12-08T15:28:29.773Z,97744.88
2022-12-08T15:30:58.656Z,97746.25
2022-12-08T15:33:26.146Z,97752.00
2022-12-08T15:35:53.480Z,97740.59
2022-12-08T15:38:27.019Z,97754.81
2022-12-08T15:40:55.179Z,97759.13
2022-12-08T15:43:23.100Z,97755.94
2022-12-08T15:45:59.004Z,97754.56
2022-12-08T15:48:29.874Z,97760.16
2022-12-08T15:50:57.536Z,97755.63
2022-12-08T15:53:24.590Z,97760.97
2022-12-08T15:58:56.032Z,97761.66
2022-12-08T16:01:24.223Z,97763.50
2022-12-08T16:09:39.716Z,97778.09
2022-12-08T16:13:06.926Z,97765.41
2022-12-08T16:15:50.026Z,97768.22
2022-12-08T16:18:13.857Z,97761.81
2022-12-08T16:23:42.402Z,97785.81
2022-12-08T16:27:22.128Z,97777.25
2022-12-08T16:29:20.485Z,97767.91
2022-12-08T16:31:48.037Z,97759.34
2022-12-08T16:34:15.111Z,97763.97
2022-12-08T16:36:42.263Z,97757.50
2022-12-08T16:39:12.827Z,97759.22
2022-12-08T16:41:58.248Z,97755.22
2022-12-08T16:44:25.286Z,97761.59
2022-12-08T16:46:52.338Z,97754.75
2022-12-08T16:49:19.377Z,97751.88
2022-12-08T16:51:46.603Z,97752.09
2022-12-08T16:54:13.710Z,97754.47
2022-12-08T16:56:41.110Z,97756.41
2022-12-08T16:59:08.179Z,97757.28
2022-12-08T17:01:36.172Z,97762.84
2022-12-08T17:06:53.160Z,97769.03
2022-12-08T17:09:20.292Z,97779.31
2022-12-08T17:11:47.411Z,97775.72
2022-12-08T17:14:15.533Z,97775.53
2022-12-08T17:16:43.744Z,97774.16
2022-12-08T17:19:13.718Z,97789.16
2022-12-08T17:21:40.877Z,97791.19
2022-12-08T17:24:08.050Z,97793.00
2022-12-08T17:26:35.760Z,97793.31
2022-12-08T17:29:03.792Z,97801.84
2022-12-08T17:31:32.639Z,97810.38
2022-12-08T17:34:04.598Z,97812.97
2022-12-08T17:36:32.124Z,97813.22
2022-12-08T17:39:00.816Z,97821.75
2022-12-08T17:41:29.195Z,97816.88
2022-12-08T17:43:56.589Z,97815.00
2022-12-08T17:46:24.011Z,97807.28
2022-12-08T17:48:51.577Z,97807.34
2022-12-08T17:51:18.861Z,97815.38
2022-12-08T17:53:46.199Z,97813.41
2022-12-08T17:56:18.951Z,97801.28
2022-12-08T17:58:49.881Z,97811.53
2022-12-08T18:01:21.338Z,97812.25
2022-12-08T18:03:48.473Z,97814.44
2022-12-08T18:06:17.770Z,97826.91
2022-12-08T18:08:45.404Z,97826.94
2022-12-08T18:11:15.159Z,97825.16
2022-12-08T18:13:42.197Z,97825.97
2022-12-08T18:16:09.425Z,97823.84
2022-12-08T18:18:36.493Z,97820.94
2022-12-08T18:21:03.859Z,97824.03
2022-12-08T18:23:31.042Z,97823.25
2022-12-08T18:25:58.099Z,97824.91
2022-12-08T18:28:25.183Z,97823.19
2022-12-08T18:30:52.318Z,97814.34
2022-12-08T18:33:19.372Z,97820.88
2022-12-08T18:35:46.517Z,97826.91
2022-12-08T18:38:13.521Z,97832.66
2022-12-08T18:40:40.617Z,97832.88
2022-12-08T18:43:07.691Z,97836.00
2022-12-08T18:45:37.063Z,97840.13
2022-12-08T18:48:04.332Z,97823.63
2022-12-08T18:50:31.424Z,97827.31
2022-12-08T18:52:58.527Z,97834.09
2022-12-08T18:55:25.564Z,97831.66
2022-12-08T18:57:52.774Z,97834.56
2022-12-08T19:00:20.502Z,97829.91
2022-12-08T19:02:47.777Z,97835.56
2022-12-08T19:05:15.474Z,97849.44
2022-12-08T19:07:43.161Z,97852.19
2022-12-08T19:10:10.869Z,97846.31
2022-12-08T19:12:38.022Z,97856.53
2022-12-08T19:15:06.134Z,97852.63
2022-12-08T19:17:33.441Z,97854.06
2022-12-08T19:20:00.572Z,97869.09
2022-12-08T19:22:27.686Z,97881.78
2022-12-08T19:24:54.819Z,97885.66
2022-12-08T19:27:21.927Z,97894.19
2022-12-08T19:29:49.037Z,97903.47
2022-12-08T19:32:16.053Z,97912.53
2022-12-08T19:34:43.332Z,97919.13
2022-12-08T19:37:12.887Z,97925.78
2022-12-08T19:39:59.182Z,97929.22
2022-12-08T19:42:44.807Z,97933.16
2022-12-08T19:45:16.065Z,97940.94
2022-12-08T19:47:43.677Z,97940.47
2022-12-08T19:50:31.722Z,97941.50
2022-12-08T19:52:59.092Z,97943.94
2022-12-08T19:55:26.774Z,97954.44
2022-12-08T19:57:54.615Z,97961.06
2022-12-08T20:00:21.959Z,97966.16
2022-12-08T20:02:50.624Z,97970.34
2022-12-08T20:05:17.977Z,97968.69
2022-12-08T20:07:45.284Z,97965.72
2022-12-08T20:10:19.887Z,97972.69
2022-12-08T20:12:46.917Z,97978.94
2022-12-08T20:15:15.384Z,97979.41
2022-12-08T20:17:43.631Z,97978.19
2022-12-08T20:20:12.856Z,97982.50
2022-12-08T20:22:40.656Z,97984.19
2022-12-08T20:25:12.776Z,97982.47
2022-12-08T20:27:40.448Z,97985.38
2022-12-08T20:30:13.376Z,97992.78
2022-12-08T20:32:43.859Z,97995.75
2022-12-08T20:35:11.009Z,97988.72
2022-12-08T20:37:38.126Z,97999.00
2022-12-08T20:40:06.567Z,98010.41
2022-12-08T20:42:33.548Z,98011.41
2022-12-08T20:45:00.693Z,98020.94
2022-12-08T20:47:27.847Z,98021.66
2022-12-08T20:49:55.122Z,98025.31
2022-12-08T20:52:22.252Z,98026.31
2022-12-08T20:54:49.379Z,98042.59
2022-12-08T20:57:16.644Z,98039.41
2022-12-08T20:59:44.126Z,98038.69
2022-12-08T21:02:11.680Z,98039.16
2022-12-08T21:04:38.924Z,98045.44
2022-12-08T21:07:06.186Z,98045.66
2022-12-08T21:09:33.443Z,98042.50
2022-12-08T21:12:00.807Z,98043.25
2022-12-08T21:14:27.951Z,98035.22
2022-12-08T21:16:55.685Z,98032.75
2022-12-08T21:19:23.018Z,98034.69
2022-12-08T21:21:51.250Z,98035.44
2022-12-08T21:24:19.312Z,98039.84
2022-12-08T21:26:46.509Z,98030.31
2022-12-08T21:29:13.735Z,98032.00
2022-12-08T21:31:41.204Z,98028.09
2022-12-08T21:34:08.363Z,98023.19
2022-12-08T21:36:35.404Z,98012.25
2022-12-08T21:39:03.051Z,98029.09
2022-12-08T21:41:48.986Z,98034.00
2022-12-08T21:44:19.788Z,98038.16
2022-12-08T21:46:46.960Z,98026.72
2022-12-08T21:49:14.232Z,98028.19
2022-12-08T21:51:43.201Z,98026.00
2022-12-08T21:54:18.317Z,98035.75
2022-12-08T21:56:46.687Z,98042.13
2022-12-08T21:59:13.863Z,98043.31
2022-12-08T22:01:43.773Z,98050.09
2022-12-08T22:04:12.726Z,98055.69
2022-12-08T22:06:39.982Z,98057.63
2022-12-08T22:09:07.445Z,98063.91
2022-12-08T22:11:34.739Z,98069.97
2022-12-08T22:14:01.972Z,98076.78
2022-12-08T22:16:29.130Z,98077.00
2022-12-08T22:18:56.956Z,98078.22
2022-12-08T22:21:24.174Z,98089.38
2022-12-08T22:23:51.383Z,98077.47
2022-12-08T22:26:18.939Z,98077.00
2022-12-08T22:28:46.157Z,98080.88
2022-12-08T22:31:19.978Z,98085.00
2022-12-08T22:33:47.723Z,98083.09
2022-12-08T22:36:18.164Z,98087.97
2022-12-08T22:38:45.876Z,98077.28
2022-12-08T22:41:13.611Z,98082.91
2022-12-08T22:43:41.461Z,98085.84
2022-12-08T22:46:27.914Z,98073.22
2022-12-08T22:48:55.333Z,98085.19
2022-12-08T22:51:23.779Z,98078.38
2022-12-08T22:53:51.031Z,98078.16
2022-12-08T22:56:19.643Z,98080.56
2022-12-08T22:58:46.899Z,98090.53
2022-12-08T23:01:31.413Z,98092.97
2022-12-08T23:04:00.144Z,98086.88
2022-12-08T23:06:29.026Z,98083.50
2022-12-08T23:08:57.258Z,98084.94
2022-12-08T23:11:27.683Z,98067.94
2022-12-08T23:13:56.476Z,98077.91
2022-12-08T23:16:23.917Z,98072.06
2022-12-08T23:18:51.087Z,98078.19
2022-12-08T23:21:19.880Z,98084.06
2022-12-08T23:23:47.646Z,98078.00
2022-12-08T23:26:27.431Z,98065.13
2022-12-08T23:28:55.965Z,98068.28
2022-12-08T23:31:23.638Z,98062.94
2022-12-08T23:33:51.557Z,98064.38
2022-12-08T23:36:20.445Z,98068.03
2022-12-08T23:38:48.015Z,98060.03
2022-12-08T23:41:16.579Z,98076.50
2022-12-08T23:43:49.350Z,98077.00
2022-12-08T23:46:17.948Z,98072.59
2022-12-08T23:48:45.146Z,98066.06
2022-12-08T23:51:13.155Z,98059.78
2022-12-08T23:53:41.171Z,98060.22
2022-12-08T23:56:11.306Z,98064.84
2022-12-08T23:58:38.709Z,98065.13
